Time;durP1;ratioP1;P1;durP2;ratioP2;P2;SDS_P1;SDS_P2;PMS_P1;PMS_P2;Temp;Humidity;BMP_temperature;BMP_pressure;BME280_temperature;BME280_humidity;BME280_pressure;Samples;Min_cycle;Max_cycle;Signal;HPM_P1;HPM_P2
2023/05/30 00:00:00;;;;;;;2.57;1.53;;;;;;;8.17;84.25;101546.97;5074814;28;20040;-81
2023/05/30 00:02:26;;;;;;;4.87;1.97;;;;;;;8.01;84.72;101539.03;5095612;28;20132;-81
2023/05/30 00:04:55;;;;;;;4.37;2.33;;;;;;;7.94;85.45;101553.91;5090007;28;20046;-81
2023/05/30 00:07:22;;;;;;;3.60;1.77;;;;;;;7.99;85.63;101551.25;5071132;28;20488;-81
2023/05/30 00:09:48;;;;;;;4.30;2.30;;;;;;;7.93;86.38;101546.00;5070362;28;20039;-81
2023/05/30 00:12:16;;;;;;;5.93;1.80;;;;;;;7.99;86.69;101556.53;5056617;28;20044;-82
2023/05/30 00:14:42;;;;;;;4.87;2.00;;;;;;;7.95;87.10;101560.03;5052729;28;20134;-81
2023/05/30 00:17:09;;;;;;;3.80;1.60;;;;;;;7.87;87.27;101547.72;5039934;28;20044;-82
2023/05/30 00:19:36;;;;;;;3.67;2.10;;;;;;;7.87;88.22;101555.63;5068979;28;20058;-80
2023/05/30 00:22:04;;;;;;;3.10;1.43;;;;;;;7.85;88.62;101545.97;5089984;28;20042;-81
2023/05/30 00:24:31;;;;;;;3.97;1.90;;;;;;;7.80;88.57;101545.94;5066097;28;20044;-81
2023/05/30 00:26:57;;;;;;;3.03;1.80;;;;;;;7.77;88.80;101545.91;5069832;28;20035;-81
2023/05/30 00:29:25;;;;;;;3.90;1.80;;;;;;;7.68;88.94;101553.75;5064839;28;20043;-81
2023/05/30 00:31:51;;;;;;;4.47;1.80;;;;;;;7.71;88.88;101555.53;5056174;28;20040;-80
2023/05/30 00:34:18;;;;;;;3.73;2.10;;;;;;;7.65;90.23;101555.47;5084117;28;20048;-82
2023/05/30 00:36:45;;;;;;;4.07;1.87;;;;;;;7.50;90.31;101551.03;5068923;28;20127;-82
2023/05/30 00:39:13;;;;;;;3.20;1.90;;;;;;;7.55;90.91;101562.44;5054621;28;20131;-81
2023/05/30 00:41:40;;;;;;;2.67;1.70;;;;;;;7.51;91.62;101553.66;5078514;28;20109;-82
2023/05/30 00:44:07;;;;;;;3.50;1.73;;;;;;;7.49;91.68;101552.78;5067115;28;20056;-82
2023/05/30 00:46:34;;;;;;;2.70;1.57;;;;;;;7.56;91.45;101557.19;5087372;28;20126;-81
2023/05/30 00:49:01;;;;;;;4.67;2.27;;;;;;;7.48;91.77;101556.28;5084396;28;20043;-83
2023/05/30 00:51:28;;;;;;;4.77;2.03;;;;;;;7.58;92.11;101560.72;5058986;28;20774;-81
2023/05/30 00:53:55;;;;;;;3.83;1.80;;;;;;;7.47;92.43;101554.50;5079310;28;20505;-82
2023/05/30 00:56:26;;;;;;;3.47;1.70;;;;;;;7.48;92.80;101558.00;5059768;28;20557;-80
2023/05/30 00:58:52;;;;;;;5.20;1.80;;;;;;;7.47;93.53;101559.75;5074288;28;20051;-81
2023/05/30 01:01:20;;;;;;;3.37;1.63;;;;;;;7.42;94.29;101564.13;5067052;28;20123;-82
2023/05/30 01:03:47;;;;;;;7.90;2.67;;;;;;;7.49;94.13;101557.16;5090236;28;20093;-81
2023/05/30 01:06:14;;;;;;;2.33;1.50;;;;;;;7.48;94.59;101553.66;5085247;28;20046;-80
2023/05/30 01:08:41;;;;;;;5.57;2.13;;;;;;;7.45;94.95;101552.75;5066775;28;20044;-83
2023/05/30 01:11:27;;;;;;;4.70;2.07;;;;;;;7.45;95.21;101555.38;5086624;28;20035;-81
2023/05/30 01:14:10;;;;;;;4.10;1.80;;;;;;;7.39;95.62;101556.19;5096364;28;20130;-81
2023/05/30 01:16:44;;;;;;;2.50;1.87;;;;;;;7.37;96.21;101562.31;5056607;28;20054;-83
2023/05/30 01:19:32;;;;;;;3.67;1.80;;;;;;;7.34;95.85;101566.69;5051040;28;20036;-82
2023/05/30 01:22:27;;;;;;;2.20;1.50;;;;;;;7.28;96.49;101564.00;5052017;28;20040;-80
2023/05/30 01:25:06;;;;;;;3.50;1.83;;;;;;;7.27;96.99;101564.00;5085744;28;20035;-81
2023/05/30 01:27:51;;;;;;;5.57;1.80;;;;;;;7.25;97.69;101566.63;5082902;28;20036;-81
2023/05/30 01:30:19;;;;;;;;;;;;;;;7.10;99.15;101563.88;5065418;28;20159;-81
2023/05/30 01:32:45;;;;;;;4.10;2.07;;;;;;;7.08;99.49;101570.00;5077367;28;19920;-81
2023/05/30 01:35:21;;;;;;;3.60;1.73;;;;;;;7.07;98.97;101574.38;5053280;28;20040;-80
2023/05/30 01:37:48;;;;;;;3.13;2.00;;;;;;;7.01;99.45;101574.31;5070013;28;20134;-80
2023/05/30 01:40:20;;;;;;;2.80;1.50;;;;;;;6.96;99.70;101576.88;5064114;28;20050;-80
2023/05/30 01:42:52;;;;;;;7.07;2.40;;;;;;;6.92;99.85;101568.97;5075757;27;20043;-81
2023/05/30 01:45:27;;;;;;;3.03;1.97;;;;;;;6.92;100.00;101574.22;5073575;28;20043;-81
2023/05/30 01:48:16;;;;;;;2.70;1.97;;;;;;;6.87;100.00;101571.56;5067504;28;20036;-81
2023/05/30 01:50:45;;;;;;;10.20;2.40;;;;;;;6.77;100.00;101565.34;5094591;28;20469;-81
2023/05/30 01:53:17;;;;;;;4.07;2.30;;;;;;;6.74;100.00;101572.31;5067086;28;20043;-80
2023/05/30 01:55:45;;;;;;;5.00;2.53;;;;;;;6.63;100.00;101572.19;5074554;28;20036;-80
2023/05/30 01:58:13;;;;;;;4.73;2.03;;;;;;;6.59;100.00;101573.03;5049130;28;20054;-80
2023/05/30 02:00:40;;;;;;;3.53;2.13;;;;;;;6.53;100.00;101569.47;5069407;28;20043;-81
2023/05/30 02:03:07;;;;;;;4.33;2.00;;;;;;;6.51;100.00;101572.06;5053954;28;20050;-81
2023/05/30 02:05:34;;;;;;;3.80;1.67;;;;;;;6.47;100.00;101576.41;5094768;28;20055;-80
2023/05/30 02:08:00;;;;;;;2.87;1.93;;;;;;;6.39;100.00;101567.59;5084553;28;20047;-80
2023/05/30 02:10:27;;;;;;;4.40;2.20;;;;;;;6.33;100.00;101571.88;5048617;28;20603;-80
2023/05/30 02:12:54;;;;;;;3.70;2.30;;;;;;;6.31;100.00;101570.97;5089158;28;20040;-81
2023/05/30 02:15:20;;;;;;;4.20;2.00;;;;;;;6.23;100.00;101578.75;5088124;28;20046;-80
2023/05/30 02:17:47;;;;;;;3.63;2.20;;;;;;;6.14;100.00;101578.66;5056762;28;20551;-81
2023/05/30 02:20:14;;;;;;;4.50;2.00;;;;;;;6.11;100.00;101576.84;5061103;28;20109;-80
2023/05/30 02:22:41;;;;;;;3.63;2.73;;;;;;;6.05;100.00;101581.13;5085207;28;20032;-81
2023/05/30 02:25:09;;;;;;;5.00;1.80;;;;;;;6.05;100.00;101579.38;5074020;28;20044;-81
2023/05/30 02:27:36;;;;;;;3.53;1.80;;;;;;;6.04;100.00;101580.25;5070068;28;20036;-81
2023/05/30 02:30:03;;;;;;;4.73;2.77;;;;;;;6.02;100.00;101575.88;5074060;28;20046;-81
2023/05/30 02:32:30;;;;;;;3.30;1.90;;;;;;;5.96;100.00;101575.78;5073011;28;20065;-81
2023/05/30 02:34:57;;;;;;;4.60;2.30;;;;;;;5.89;100.00;101574.81;5058827;28;20032;-80
2023/05/30 02:37:23;;;;;;;3.13;2.00;;;;;;;5.87;100.00;101568.63;5056192;28;20041;-81
2023/05/30 02:39:50;;;;;;;4.00;2.57;;;;;;;5.83;100.00;101566.84;5083796;28;20046;-81
2023/05/30 02:42:16;;;;;;;4.17;1.93;;;;;;;5.79;100.00;101572.88;5074356;28;20032;-81
2023/05/30 02:44:43;;;;;;;6.03;2.40;;;;;;;5.76;100.00;101575.47;5090776;28;20131;-81
2023/05/30 02:47:10;;;;;;;5.03;2.10;;;;;;;5.74;100.00;101579.84;5054473;28;20406;-81
2023/05/30 02:49:37;;;;;;;5.80;2.00;;;;;;;5.70;100.00;101575.38;5095989;28;20086;-81
2023/05/30 02:52:04;;;;;;;4.97;2.60;;;;;;;5.65;100.00;101581.47;5054838;28;20043;-81
2023/05/30 02:54:31;;;;;;;3.73;2.37;;;;;;;5.56;100.00;101577.84;5066614;28;20032;-81
2023/05/30 02:56:58;;;;;;;3.87;2.17;;;;;;;5.53;100.00;101581.28;5068926;28;20044;-81
2023/05/30 02:59:25;;;;;;;5.40;2.20;;;;;;;5.49;100.00;101579.47;5071948;28;20047;-81
2023/05/30 03:01:52;;;;;;;27.83;6.13;;;;;;;5.49;100.00;101579.47;5050297;28;20040;-83
2023/05/30 03:04:18;;;;;;;30.20;5.50;;;;;;;5.46;100.00;101587.28;5047016;28;20048;-81
2023/05/30 03:06:49;;;;;;;17.23;3.60;;;;;;;5.45;100.00;101584.63;5071388;28;20046;-81
2023/05/30 03:09:19;;;;;;;25.33;4.80;;;;;;;5.49;100.00;101582.09;5073722;28;20166;-83
2023/05/30 03:11:46;;;;;;;24.33;5.27;;;;;;;5.38;100.00;101586.28;5065357;28;20043;-82
2023/05/30 03:14:12;;;;;;;17.40;3.93;;;;;;;5.35;100.00;101594.09;5089528;28;20042;-81
2023/05/30 03:16:39;;;;;;;5.93;2.83;;;;;;;5.33;100.00;101599.31;5075640;27;20090;-81
2023/05/30 03:19:06;;;;;;;8.87;2.90;;;;;;;5.31;100.00;101595.81;5079755;28;20044;-82
2023/05/30 03:21:33;;;;;;;11.33;2.97;;;;;;;5.30;100.00;101601.03;5080123;28;20800;-80
2023/05/30 03:24:00;;;;;;;6.53;2.40;;;;;;;5.22;100.00;101600.00;5082911;28;20108;-82
2023/05/30 03:26:27;;;;;;;5.47;2.10;;;;;;;5.21;100.00;101598.22;5077067;28;20497;-83
2023/05/30 03:28:54;;;;;;;7.27;2.27;;;;;;;5.18;100.00;101599.06;5063345;28;20658;-82
2023/05/30 03:31:20;;;;;;;7.93;2.20;;;;;;;5.20;100.00;101602.59;5063985;28;21176;-82
2023/05/30 03:33:47;;;;;;;4.23;2.17;;;;;;;5.18;100.00;101599.06;5086809;28;20032;-81
2023/05/30 03:36:14;;;;;;;3.20;1.93;;;;;;;5.13;100.00;101606.00;5069694;28;20075;-83
2023/05/30 03:38:40;;;;;;;3.77;2.47;;;;;;;5.08;100.00;101607.63;5074172;28;20639;-85
2023/05/30 03:41:07;;;;;;;6.40;2.80;;;;;;;5.12;100.00;101612.06;5057890;28;20055;-81
2023/05/30 03:43:34;;;;;;;4.70;2.13;;;;;;;5.15;100.00;101613.88;5064431;28;20027;-82
2023/05/30 03:46:01;;;;;;;5.37;2.23;;;;;;;5.14;100.00;101617.34;5088983;28;20046;-82
2023/05/30 03:48:27;;;;;;;4.63;2.10;;;;;;;5.15;100.00;101611.25;5072336;28;20492;-82
2023/05/30 03:50:54;;;;;;;3.40;2.00;;;;;;;5.18;100.00;101606.03;5074419;28;20396;-82
2023/05/30 03:53:21;;;;;;;4.33;1.90;;;;;;;5.17;100.00;101612.16;5057068;28;20404;-81
2023/05/30 03:55:48;;;;;;;6.23;2.20;;;;;;;5.16;100.00;101608.66;5065105;28;20110;-81
2023/05/30 03:58:15;;;;;;;3.60;1.90;;;;;;;5.15;100.00;101614.75;5085034;28;20040;-81
2023/05/30 04:00:41;;;;;;;3.47;1.70;;;;;;;5.15;100.00;101619.09;5055943;28;20036;-81
2023/05/30 04:03:08;;;;;;;5.27;2.40;;;;;;;5.19;100.00;101627.03;5073316;28;20046;-82
2023/05/30 04:05:35;;;;;;;4.40;1.90;;;;;;;5.30;100.00;101619.38;5051543;28;20047;-82
2023/05/30 04:08:02;;;;;;;4.30;2.50;;;;;;;5.29;100.00;101628.94;5073780;28;20428;-80
2023/05/30 04:10:28;;;;;;;4.73;2.10;;;;;;;5.32;100.00;101634.25;5057236;28;20139;-82
2023/05/30 04:12:55;;;;;;;5.23;2.40;;;;;;;5.37;100.00;101629.94;5054562;28;20036;-82
2023/05/30 04:15:22;;;;;;;5.27;2.27;;;;;;;5.24;100.00;101632.34;5072217;28;20481;-79
2023/05/30 04:17:48;;;;;;;3.57;2.43;;;;;;;5.23;100.00;101631.47;5053627;28;20115;-82
2023/05/30 04:20:17;;;;;;;3.43;2.10;;;;;;;5.47;100.00;101633.63;5071128;28;20040;-82
2023/05/30 04:22:43;;;;;;;7.80;2.10;;;;;;;5.40;100.00;101636.13;5059491;28;20634;-81
2023/05/30 04:25:14;;;;;;;4.97;2.27;;;;;;;5.35;100.00;101630.78;5061534;28;20036;-81
2023/05/30 04:28:09;;;;;;;6.30;2.70;;;;;;;5.45;100.00;101639.66;5084515;28;20275;-81
2023/05/30 04:31:05;;;;;;;3.37;2.07;;;;;;;5.45;100.00;101639.66;5059308;28;20064;-80
2023/05/30 04:38:44;;;;;;;3.90;2.17;;;;;;;5.61;100.00;101637.31;4967576;28;20050;-82
2023/05/30 04:41:59;;;;;;;6.47;2.47;;;;;;;5.73;100.00;101646.25;4959326;28;20067;-81
2023/05/30 04:45:04;;;;;;;6.47;2.50;;;;;;;5.76;100.00;101644.53;5012043;28;20097;-79
2023/05/30 04:47:45;;;;;;;2.83;1.97;;;;;;;5.90;100.00;101645.66;5042890;28;20045;-79
2023/05/30 04:50:16;;;;;;;7.07;2.50;;;;;;;6.01;100.00;101643.19;5027846;28;20050;-79
2023/05/30 04:52:46;;;;;;;4.10;2.57;;;;;;;6.05;100.00;101650.22;4990589;28;20050;-81
2023/05/30 04:55:13;;;;;;;4.10;2.27;;;;;;;6.26;100.00;101649.66;5004035;28;20085;-82
2023/05/30 04:57:41;;;;;;;3.57;2.43;;;;;;;6.89;100.00;101651.25;4985611;28;20041;-81
2023/05/30 05:00:13;;;;;;;4.90;2.33;;;;;;;6.95;100.00;101655.69;4988894;28;20073;-80
2023/05/30 05:02:45;;;;;;;5.07;2.60;;;;;;;6.94;100.00;101659.19;5006665;28;20045;-81
2023/05/30 05:05:13;;;;;;;5.93;2.60;;;;;;;6.92;100.00;101655.66;5008543;28;20045;-81
2023/05/30 05:07:42;;;;;;;6.10;2.10;;;;;;;7.22;100.00;101653.31;5024985;28;20080;-82
2023/05/30 05:10:11;;;;;;;4.27;2.10;;;;;;;7.55;100.00;101655.34;5024101;28;20084;-81
2023/05/30 05:12:39;;;;;;;6.03;2.53;;;;;;;7.61;100.00;101657.16;4991483;28;20792;-81
2023/05/30 05:15:10;;;;;;;7.87;2.83;;;;;;;7.58;100.00;101654.53;5067526;28;20062;-81
2023/05/30 05:17:39;;;;;;;5.07;2.07;;;;;;;7.56;100.00;101664.13;5079841;28;20036;-82
2023/05/30 05:20:08;;;;;;;5.77;2.83;;;;;;;7.64;100.00;101659.81;5065580;28;20048;-83
2023/05/30 05:22:39;;;;;;;5.00;2.50;;;;;;;7.92;100.00;101663.53;5057944;28;20090;-83
2023/05/30 05:25:06;;;;;;;3.93;2.53;;;;;;;8.00;100.00;101655.69;5067597;28;20054;-82
2023/05/30 05:27:34;;;;;;;92.97;14.07;;;;;;;8.05;100.00;101653.94;5068125;28;20086;-80
2023/05/30 05:30:05;;;;;;;123.77;18.30;;;;;;;8.36;100.00;101661.16;5060216;28;20043;-81
2023/05/30 05:32:44;;;;;;;42.77;8.13;;;;;;;8.91;100.00;101664.00;5087161;28;20047;-83
2023/05/30 05:35:11;;;;;;;43.60;8.03;;;;;;;10.29;100.00;101656.03;5079501;28;20040;-81
2023/05/30 05:37:38;;;;;;;30.42;6.28;;;;;;;12.62;93.11;101655.94;5073444;28;20054;-83
2023/05/30 05:40:05;;;;;;;24.58;4.07;;;;;;;14.78;73.35;101650.44;5076878;28;20070;-84
2023/05/30 05:42:33;;;;;;;12.07;3.20;;;;;;;15.23;70.12;101650.31;5063474;28;20056;-83
2023/05/30 05:45:00;;;;;;;12.13;2.97;;;;;;;15.41;67.95;101653.38;5103697;28;20048;-80
2023/05/30 05:47:27;;;;;;;8.45;2.47;;;;;;;16.15;62.13;101649.72;5073368;28;20070;-80
2023/05/30 05:49:54;;;;;;;9.85;2.70;;;;;;;16.46;59.77;101648.81;5097661;28;20032;-81
2023/05/30 05:52:21;;;;;;;14.13;4.20;;;;;;;16.59;59.86;101647.53;5080580;28;20119;-82
2023/05/30 05:54:47;;;;;;;7.90;3.05;;;;;;;17.21;57.04;101650.09;5093828;28;20078;-79
2023/05/30 05:57:14;;;;;;;6.07;2.22;;;;;;;17.52;55.70;101652.63;5099376;28;20039;-80
2023/05/30 05:59:41;;;;;;;5.88;1.95;;;;;;;18.60;52.13;101649.72;5069901;28;20043;-81
2023/05/30 06:02:08;;;;;;;5.47;2.13;;;;;;;18.84;50.70;101655.03;5088401;28;20554;-80
2023/05/30 06:04:34;;;;;;;7.22;2.55;;;;;;;18.67;50.76;101654.81;5066127;28;20066;-81
2023/05/30 06:07:01;;;;;;;4.82;2.00;;;;;;;18.31;51.86;101656.13;5093003;28;20047;-82
2023/05/30 06:09:31;;;;;;;3.47;2.20;;;;;;;17.79;51.93;101660.66;5056699;28;20036;-80
2023/05/30 06:11:58;;;;;;;7.57;3.25;;;;;;;17.31;52.21;101664.88;5088500;28;20047;-81
2023/05/30 06:14:25;;;;;;;14.70;3.78;;;;;;;17.02;54.40;101672.97;5057626;28;20063;-79
2023/05/30 06:16:52;;;;;;;90.85;12.45;;;;;;;16.73;55.52;101676.50;5060889;28;20139;-82
2023/05/30 06:19:19;;;;;;;38.35;6.68;;;;;;;16.59;55.97;101671.56;5094738;28;20031;-82
2023/05/30 06:21:46;;;;;;;15.02;4.10;;;;;;;16.49;56.82;101672.75;5075878;28;20121;-82
2023/05/30 06:24:12;;;;;;;18.85;3.35;;;;;;;16.26;56.09;101678.72;5050263;28;20468;-84
2023/05/30 06:26:41;;;;;;;133.52;19.40;;;;;;;16.21;57.78;101686.84;5056421;28;20069;-83
2023/05/30 06:29:08;;;;;;;34.85;6.18;;;;;;;16.24;57.82;101686.78;5074405;28;20079;-82
2023/05/30 06:31:35;;;;;;;8.05;2.85;;;;;;;16.16;56.05;101683.44;5090879;28;20044;-81
2023/05/30 06:34:01;;;;;;;30.98;5.60;;;;;;;16.08;55.74;101682.78;5073863;28;20053;-83
2023/05/30 06:36:28;;;;;;;4.28;2.05;;;;;;;16.04;54.63;101687.28;5061549;28;20044;-81
2023/05/30 06:38:55;;;;;;;4.65;2.00;;;;;;;16.05;55.17;101691.72;5051079;27;20036;-81
2023/05/30 06:41:22;;;;;;;3.63;1.67;;;;;;;15.98;54.68;101684.81;5088506;28;20050;-81
2023/05/30 06:43:49;;;;;;;4.18;2.15;;;;;;;16.11;54.98;101692.47;5074577;27;20501;-82
2023/05/30 06:46:16;;;;;;;4.95;2.00;;;;;;;16.31;55.87;101703.47;5052053;28;20113;-81
2023/05/30 06:48:43;;;;;;;3.30;1.90;;;;;;;16.47;54.24;101686.09;5070614;28;20074;-82
2023/05/30 06:51:11;;;;;;;5.68;1.60;;;;;;;16.48;53.82;101689.66;5077219;28;20068;-81
2023/05/30 06:53:38;;;;;;;4.22;1.70;;;;;;;16.74;54.26;101694.28;5067864;28;20493;-82
2023/05/30 06:56:05;;;;;;;6.25;1.88;;;;;;;16.96;53.16;101694.50;5058936;28;20040;-82
2023/05/30 06:58:32;;;;;;;5.03;2.00;;;;;;;17.07;51.95;101695.94;5071276;28;20041;-81
2023/05/30 07:00:59;;;;;;;3.92;1.85;;;;;;;17.34;52.97;101691.53;5082181;28;20489;-81
2023/05/30 07:03:26;;;;;;;3.60;1.60;;;;;;;17.27;51.20;101706.00;5077117;28;20031;-83
2023/05/30 07:05:53;;;;;;;4.35;1.80;;;;;;;17.48;50.72;101696.41;5079784;28;20040;-82
2023/05/30 07:08:20;;;;;;;2.67;1.67;;;;;;;17.77;51.19;101697.28;5060758;28;20044;-83
2023/05/30 07:10:47;;;;;;;6.70;2.13;;;;;;;18.06;51.32;101698.94;5067369;28;20032;-82
2023/05/30 07:13:13;;;;;;;2.72;1.67;;;;;;;18.07;46.50;101693.53;5044519;28;20068;-84
2023/05/30 07:15:40;;;;;;;4.32;1.85;;;;;;;18.27;47.25;101701.75;5047309;28;20090;-81
2023/05/30 07:18:07;;;;;;;3.47;1.73;;;;;;;18.44;46.10;101701.13;5055384;28;20052;-82
2023/05/30 07:20:34;;;;;;;10.57;3.55;;;;;;;18.74;46.58;101703.59;5083512;28;20127;-84
2023/05/30 07:23:01;;;;;;;6.05;2.22;;;;;;;18.98;45.26;101704.47;5051546;28;20054;-83
2023/05/30 07:25:27;;;;;;;3.80;1.60;;;;;;;18.96;44.44;101699.19;5074584;28;20106;-85
2023/05/30 07:27:54;;;;;;;4.18;1.60;;;;;;;19.16;43.32;101700.19;5057346;28;20493;-85
2023/05/30 07:30:21;;;;;;;4.95;1.98;;;;;;;19.04;40.96;101702.44;5073088;28;20485;-83
2023/05/30 07:32:49;;;;;;;2.20;1.63;;;;;;;19.18;41.81;101695.69;5059107;28;20055;-86
2023/05/30 07:35:17;;;;;;;2.95;1.45;;;;;;;19.45;42.71;101699.91;5076034;28;20497;-83
2023/05/30 07:37:44;;;;;;;5.15;1.83;;;;;;;19.67;41.47;101702.59;5064841;28;20062;-85
2023/05/30 07:40:12;;;;;;;2.85;1.83;;;;;;;19.53;41.15;101696.94;5051825;28;20044;-81
2023/05/30 07:42:38;;;;;;;5.07;1.63;;;;;;;19.65;41.87;101696.44;5055401;28;20087;-85
2023/05/30 07:45:06;;;;;;;4.25;1.40;;;;;;;20.00;41.68;101691.38;5084573;28;20043;-83
2023/05/30 07:47:32;;;;;;;2.33;1.48;;;;;;;20.20;41.90;101689.59;5052240;28;20048;-85
2023/05/30 07:49:59;;;;;;;3.70;2.03;;;;;;;20.32;41.09;101682.78;5052496;28;20125;-85
2023/05/30 07:52:27;;;;;;;4.22;1.77;;;;;;;20.27;41.55;101684.81;5059715;28;20036;-82
2023/05/30 07:54:55;;;;;;;3.35;1.50;;;;;;;20.54;41.74;101682.72;5055819;28;20040;-84
2023/05/30 07:57:21;;;;;;;3.55;1.52;;;;;;;20.57;42.29;101687.94;5060831;28;20071;-85
2023/05/30 07:59:48;;;;;;;4.28;1.98;;;;;;;20.55;39.74;101695.22;5044744;28;20063;-84
2023/05/30 08:02:15;;;;;;;5.88;1.70;;;;;;;20.59;38.35;101688.75;5053981;28;20085;-83
2023/05/30 08:04:42;;;;;;;3.78;1.83;;;;;;;20.38;38.52;101703.13;5066774;28;20127;-83
2023/05/30 08:07:09;;;;;;;4.20;1.50;;;;;;;20.83;39.61;101693.94;5069100;28;20096;-84
2023/05/30 08:09:37;;;;;;;4.95;1.92;;;;;;;20.99;39.38;101695.81;5091124;28;20088;-83
2023/05/30 08:12:07;;;;;;;3.55;1.70;;;;;;;21.15;38.50;101698.66;5065226;28;20126;-83
2023/05/30 08:14:34;;;;;;;3.45;1.90;;;;;;;21.28;38.28;101696.28;5069965;28;20035;-82
2023/05/30 08:17:11;;;;;;;2.97;1.77;;;;;;;20.75;37.74;101697.84;5071333;28;20709;-83
2023/05/30 08:19:39;;;;;;;4.03;2.13;;;;;;;20.44;37.68;101698.41;5090470;28;20032;-82
2023/05/30 08:22:06;;;;;;;5.35;2.00;;;;;;;20.32;38.91;101703.38;5072309;28;20047;-82
2023/05/30 08:24:33;;;;;;;3.53;1.77;;;;;;;20.40;40.15;101691.38;5090109;28;20028;-84
2023/05/30 08:27:00;;;;;;;3.97;1.92;;;;;;;20.70;39.64;101707.94;5069607;28;20040;-85
2023/05/30 08:29:27;;;;;;;3.03;1.55;;;;;;;20.96;39.10;101711.22;5054162;28;20043;-86
2023/05/30 08:31:54;;;;;;;3.10;1.90;;;;;;;21.03;37.99;101694.75;5074252;28;20187;-82
2023/05/30 08:34:24;;;;;;;2.88;1.67;;;;;;;21.13;38.44;101699.69;5050354;28;20044;-85
2023/05/30 08:36:55;;;;;;;4.32;1.60;;;;;;;21.28;37.79;101707.03;5059957;28;20043;-85
2023/05/30 08:39:22;;;;;;;417.52;56.13;;;;;;;21.49;38.23;101702.41;5060420;28;20044;-85
2023/05/30 08:41:50;;;;;;;17.92;3.83;;;;;;;21.48;37.66;101698.00;5059222;28;20043;-85
2023/05/30 08:44:16;;;;;;;3.28;1.50;;;;;;;21.69;37.84;101710.34;5063318;28;20132;-86
2023/05/30 08:46:43;;;;;;;39.90;6.72;;;;;;;21.73;36.65;101717.34;5067557;28;20401;-86
2023/05/30 08:49:13;;;;;;;4.95;2.25;;;;;;;21.09;37.49;101715.94;5072800;28;20055;-85
2023/05/30 08:51:42;;;;;;;3.38;1.70;;;;;;;21.19;37.09;101711.00;5069821;28;20063;-84
2023/05/30 08:54:16;;;;;;;3.75;1.60;;;;;;;21.61;36.32;101707.22;5058815;28;20650;-84
2023/05/30 08:56:52;;;;;;;4.47;1.63;;;;;;;21.55;35.78;101708.38;5071019;28;20058;-87
2023/05/30 08:59:20;;;;;;;3.25;1.60;;;;;;;21.85;36.13;101697.00;5079078;28;20112;-86
2023/05/30 09:01:49;;;;;;;4.10;2.20;;;;;;;21.75;34.82;101699.28;5080494;28;20600;-86
2023/05/30 09:04:21;;;;;;;4.43;1.70;;;;;;;21.89;35.40;101695.91;5069311;28;20042;-84
2023/05/30 09:06:48;;;;;;;6.03;1.80;;;;;;;22.04;35.17;101692.44;5062337;28;20048;-85
2023/05/30 09:09:15;;;;;;;2.75;1.73;;;;;;;22.26;35.51;101700.25;5088285;28;20051;-84
2023/05/30 09:11:42;;;;;;;5.50;1.83;;;;;;;22.17;34.83;101693.53;5076336;28;20035;-85
2023/05/30 09:14:09;;;;;;;3.75;2.08;;;;;;;22.48;33.69;101698.19;5090326;28;20089;-85
2023/05/30 09:16:36;;;;;;;3.92;2.00;;;;;;;22.22;33.01;101692.44;5062355;28;20374;-87
2023/05/30 09:19:03;;;;;;;3.70;1.60;;;;;;;22.53;34.02;101697.91;5092582;28;20044;-85
2023/05/30 09:21:35;;;;;;;3.67;1.67;;;;;;;22.45;33.46;101689.41;5079923;28;20053;-85
2023/05/30 09:24:08;;;;;;;6.05;2.10;;;;;;;22.10;33.72;101699.31;5058204;28;20044;-86
2023/05/30 09:26:35;;;;;;;4.10;1.77;;;;;;;22.05;35.01;101690.59;5085850;28;20862;-86
2023/05/30 09:29:08;;;;;;;4.35;1.70;;;;;;;22.74;34.98;101694.06;5057073;28;20055;-86
2023/05/30 09:31:37;;;;;;;6.50;2.15;;;;;;;23.16;34.19;101697.19;5079319;28;20063;-82
2023/05/30 09:34:05;;;;;;;4.05;2.10;;;;;;;23.51;33.62;101695.16;5064849;28;20066;-87
2023/05/30 09:36:35;;;;;;;3.55;2.03;;;;;;;23.63;33.18;101701.69;5068639;28;20070;-83
2023/05/30 09:39:05;;;;;;;2.75;1.83;;;;;;;23.63;33.24;101709.78;5077494;28;20043;-82
2023/05/30 09:41:33;;;;;;;4.10;2.15;;;;;;;22.99;32.47;101703.53;5071244;28;20050;-82
2023/05/30 09:44:04;;;;;;;6.57;2.60;;;;;;;22.57;32.55;101706.72;5081706;28;20678;-82
2023/05/30 09:46:31;;;;;;;5.03;2.60;;;;;;;22.70;33.22;101714.06;5062583;28;20035;-83
2023/05/30 09:48:58;;;;;;;4.68;2.10;;;;;;;22.92;33.42;101713.78;5098338;28;20043;-81
2023/05/30 09:51:26;;;;;;;4.00;2.10;;;;;;;23.02;33.16;101708.72;5073423;28;20574;-86
2023/05/30 09:54:00;;;;;;;4.78;2.15;;;;;;;23.02;32.38;101706.91;5064169;28;20040;-83
2023/05/30 09:56:30;;;;;;;;;;;;;;;22.96;32.82;101709.09;5055190;27;20046;-81
2023/05/30 09:58:58;;;;;;;6.47;2.38;;;;;;;23.12;32.34;101701.00;5069562;28;20360;-84
2023/05/30 10:01:25;;;;;;;5.78;2.65;;;;;;;22.92;32.88;101716.47;5067189;28;20064;-84
2023/05/30 10:03:52;;;;;;;1128.97;201.05;;;;;;;22.54;32.04;101723.06;5052855;28;20043;-86
2023/05/30 10:06:20;;;;;;;34.63;5.93;;;;;;;22.48;32.19;101722.41;5060528;28;20036;-83
2023/05/30 10:08:48;;;;;;;17.63;4.18;;;;;;;22.52;31.83;101720.41;5064042;28;20040;-84
2023/05/30 10:11:19;;;;;;;9.43;2.75;;;;;;;22.79;32.70;101722.59;5059517;28;20046;-82
2023/05/30 10:13:48;;;;;;;5.18;1.83;;;;;;;22.63;31.59;101711.78;5073996;28;20052;-83
2023/05/30 10:16:17;;;;;;;5.75;1.90;;;;;;;22.65;31.97;101716.13;5080906;28;20081;-86
2023/05/30 10:18:51;;;;;;;6.75;2.83;;;;;;;22.71;31.69;101714.94;5053833;28;20041;-85
2023/05/30 10:21:17;;;;;;;;;;;;;;;22.96;31.07;101720.75;5062292;28;20047;-84
2023/05/30 10:23:44;;;;;;;3.45;1.85;;;;;;;22.78;30.90;101721.69;5075032;28;19919;-84
2023/05/30 10:26:12;;;;;;;5.15;1.90;;;;;;;22.68;31.63;101713.25;5073656;28;20044;-85
2023/05/30 10:28:40;;;;;;;3.35;1.92;;;;;;;23.02;32.12;101714.13;5096338;28;20036;-86
2023/05/30 10:31:07;;;;;;;5.20;1.95;;;;;;;22.98;31.14;101723.34;5078836;28;20661;-83
2023/05/30 10:33:36;;;;;;;3.40;2.10;;;;;;;22.50;31.13;101718.78;5055840;28;20043;-86
2023/05/30 10:36:22;;;;;;;3.03;1.90;;;;;;;22.73;31.51;101713.03;5075553;28;20126;-85
2023/05/30 10:38:56;;;;;;;5.38;1.70;;;;;;;22.82;31.40;101717.03;5045547;28;20036;-84
2023/05/30 10:41:37;;;;;;;5.18;1.70;;;;;;;22.95;31.84;101721.72;5085240;28;20126;-85
2023/05/30 10:44:49;;;;;;;4.38;1.88;;;;;;;22.60;32.17;101718.19;5055267;28;20037;-87
2023/05/30 10:47:34;;;;;;;5.68;1.90;;;;;;;22.52;32.64;101725.81;5056605;28;20040;-84
2023/05/30 10:50:05;;;;;;;3.67;2.38;;;;;;;21.99;32.34;101718.69;5089178;28;20059;-84
2023/05/30 10:52:32;;;;;;;5.13;2.30;;;;;;;22.44;31.45;101718.13;5058266;28;20041;-85
2023/05/30 10:55:00;;;;;;;3.63;1.88;;;;;;;22.66;32.72;101711.59;5074600;28;20062;-83
2023/05/30 10:57:33;;;;;;;5.70;1.65;;;;;;;22.68;32.07;101715.06;5068342;28;20040;-84
2023/05/30 11:00:09;;;;;;;5.68;2.58;;;;;;;22.94;32.72;101710.97;5073169;28;20069;-83
2023/05/30 11:02:38;;;;;;;4.57;1.83;;;;;;;23.10;32.28;101711.00;5067665;28;20036;-83
2023/05/30 11:05:09;;;;;;;4.07;1.90;;;;;;;22.55;32.61;101709.50;5059717;28;20043;-83
2023/05/30 11:07:42;;;;;;;7.45;2.75;;;;;;;22.87;32.33;101710.47;5054599;28;20130;-82
2023/05/30 11:10:14;;;;;;;2.97;2.00;;;;;;;22.98;32.56;101699.97;5090526;28;20112;-85
2023/05/30 11:12:43;;;;;;;3.55;1.90;;;;;;;23.21;31.67;101701.38;5054972;28;20045;-86
2023/05/30 11:15:14;;;;;;;4.22;2.10;;;;;;;23.19;31.77;101705.09;5060835;28;20040;-86
2023/05/30 11:17:41;;;;;;;4.43;1.90;;;;;;;22.47;31.23;101700.97;5062655;28;20055;-83
2023/05/30 11:20:14;;;;;;;3.53;1.75;;;;;;;22.76;31.45;101696.66;5058737;28;20577;-83
2023/05/30 11:23:00;;;;;;;4.50;2.17;;;;;;;22.95;32.04;101705.53;5092746;28;20110;-85
2023/05/30 11:25:32;;;;;;;3.17;1.83;;;;;;;23.26;31.77;101703.78;5083733;28;20035;-83
2023/05/30 11:28:12;;;;;;;5.35;1.92;;;;;;;23.40;31.31;101703.88;5072456;28;20059;-81
2023/05/30 11:30:44;;;;;;;3.33;2.17;;;;;;;23.59;31.09;101700.97;5112100;28;20036;-82
2023/05/30 11:33:12;;;;;;;6.10;2.10;;;;;;;23.73;31.68;101702.91;5076740;28;20130;-83
2023/05/30 11:35:48;;;;;;;6.03;2.10;;;;;;;23.69;32.04;101699.50;5062940;28;20040;-82
2023/05/30 11:38:18;;;;;;;7.25;2.05;;;;;;;23.26;31.18;101707.34;5078838;28;20045;-84
2023/05/30 11:40:46;;;;;;;4.05;1.83;;;;;;;23.36;31.56;101709.53;5064865;28;20071;-85